Time;durP1;ratioP1;P1;durP2;ratioP2;P2;SDS_P1;SDS_P2;PMS_P1;PMS_P2;Temp;Humidity;BMP_temperature;BMP_pressure;BME280_temperature;BME280_humidity;BME280_pressure;Samples;Min_cycle;Max_cycle;Signal;HPM_P1;HPM_P2
2022/01/09 00:00:12;;;;;;;23.13;3.47;;;;;;;;;;5009420;28;20080;-65
2022/01/09 00:02:38;;;;;;;15.60;3.05;;;;;;;;;;5000532;28;20368;-65
2022/01/09 00:05:05;;;;;;;16.80;2.90;;;;;;;;;;5010496;28;20021;-65
2022/01/09 00:07:31;;;;;;;16.38;2.33;;;;;;;;;;4999743;28;20026;-65
2022/01/09 00:09:57;;;;;;;17.77;3.00;;;;;;;;;;5005991;28;20502;-65
2022/01/09 00:12:24;;;;;;;17.83;2.90;;;;;;;;;;5002356;28;20521;-65
2022/01/09 00:14:50;;;;;;;17.95;2.70;;;;;;;;;;4994767;28;20512;-65
2022/01/09 00:17:16;;;;;;;27.95;3.10;;;;;;;;;;5009574;28;20018;-65
2022/01/09 00:19:42;;;;;;;27.98;3.42;;;;;;;;;;5000319;28;20044;-65
2022/01/09 00:22:08;;;;;;;22.42;4.13;;;;;;;;;;5004167;28;20038;-65
2022/01/09 00:24:34;;;;;;;24.55;3.83;;;;;;;;;;5007781;28;20025;-65
2022/01/09 00:27:00;;;;;;;17.08;3.78;;;;;;;;;;4997346;28;20033;-65
2022/01/09 00:29:27;;;;;;;24.73;4.28;;;;;;;;;;5009867;28;20022;-65
2022/01/09 00:31:53;;;;;;;30.90;4.85;;;;;;;;;;4999921;28;20032;-65
2022/01/09 00:34:19;;;;;;;17.50;3.65;;;;;;;;;;5004683;28;20100;-65
2022/01/09 00:36:45;;;;;;;22.08;4.00;;;;;;;;;;4999467;28;20018;-65
2022/01/09 00:39:11;;;;;;;21.27;2.97;;;;;;;;;;5009815;28;20041;-65
2022/01/09 00:41:37;;;;;;;17.20;3.28;;;;;;;;;;4999342;28;20034;-65
2022/01/09 00:44:03;;;;;;;16.90;4.50;;;;;;;;;;5004915;28;20031;-65
2022/01/09 00:46:29;;;;;;;20.33;2.70;;;;;;;;;;4979676;28;20034;-65
2022/01/09 00:48:55;;;;;;;22.83;2.33;;;;;;;;;;4994133;28;20041;-65
2022/01/09 00:51:23;;;;;;;25.70;3.63;;;;;;;;;;5009638;28;20045;-65
2022/01/09 00:53:49;;;;;;;18.42;2.67;;;;;;;;;;5000570;28;20029;-65
2022/01/09 00:56:15;;;;;;;28.67;3.58;;;;;;;;;;5002984;28;20018;-65
2022/01/09 00:58:42;;;;;;;23.65;4.22;;;;;;;;;;4994123;28;20066;-65
2022/01/09 01:01:08;;;;;;;16.20;3.47;;;;;;;;;;4993874;28;20022;-65
2022/01/09 01:03:34;;;;;;;27.55;4.65;;;;;;;;;;4997848;28;20033;-65
2022/01/09 01:06:00;;;;;;;34.22;8.30;;;;;;;;;;5005265;28;20113;-65
2022/01/09 01:08:26;;;;;;;29.30;5.85;;;;;;;;;;5005092;28;20034;-65
2022/01/09 01:10:52;;;;;;;39.80;4.90;;;;;;;;;;4998126;28;20026;-65
2022/01/09 01:13:18;;;;;;;18.48;4.22;;;;;;;;;;5008153;28;20030;-65
2022/01/09 01:15:44;;;;;;;25.98;4.28;;;;;;;;;;5007601;28;20478;-65
2022/01/09 01:18:10;;;;;;;32.45;5.20;;;;;;;;;;5002259;28;20450;-65
2022/01/09 01:20:37;;;;;;;27.50;5.25;;;;;;;;;;5000518;28;20023;-65
2022/01/09 01:23:03;;;;;;;26.13;3.95;;;;;;;;;;5009211;28;20072;-65
2022/01/09 01:25:29;;;;;;;14.38;2.60;;;;;;;;;;4996619;28;20026;-65
2022/01/09 01:27:55;;;;;;;27.15;4.50;;;;;;;;;;5005914;28;20022;-65
2022/01/09 01:30:21;;;;;;;21.40;2.85;;;;;;;;;;5002050;28;20022;-65
2022/01/09 01:32:47;;;;;;;18.67;2.35;;;;;;;;;;5003478;28;20033;-65
2022/01/09 01:35:14;;;;;;;26.55;3.35;;;;;;;;;;4994147;28;20031;-65
2022/01/09 01:37:42;;;;;;;32.25;3.67;;;;;;;;;;5007845;28;20064;-65
2022/01/09 01:40:14;;;;;;;21.80;3.83;;;;;;;;;;5001408;28;20394;-65
2022/01/09 01:42:40;;;;;;;18.08;3.13;;;;;;;;;;4999941;28;20038;-65
2022/01/09 01:45:06;;;;;;;20.65;2.92;;;;;;;;;;5008885;28;20509;-64
2022/01/09 01:47:32;;;;;;;29.25;3.22;;;;;;;;;;4996191;28;20022;-64
2022/01/09 01:49:59;;;;;;;18.92;2.65;;;;;;;;;;5005612;28;20479;-64
2022/01/09 01:52:34;;;;;;;23.77;4.13;;;;;;;;;;5003532;28;20081;-64
2022/01/09 01:55:00;;;;;;;18.85;3.05;;;;;;;;;;4978950;28;20525;-64
2022/01/09 01:57:27;;;;;;;23.77;2.78;;;;;;;;;;4995059;28;20108;-64
2022/01/09 01:59:55;;;;;;;19.08;3.55;;;;;;;;;;5005939;28;20022;-64
2022/01/09 02:02:23;;;;;;;22.27;3.10;;;;;;;;;;5002360;28;20038;-64
2022/01/09 02:04:49;;;;;;;29.38;3.22;;;;;;;;;;4998493;28;20113;-64
2022/01/09 02:07:15;;;;;;;24.63;3.08;;;;;;;;;;5008652;28;20548;-64
2022/01/09 02:09:41;;;;;;;30.20;4.30;;;;;;;;;;4997257;28;20026;-64
2022/01/09 02:12:08;;;;;;;27.83;3.50;;;;;;;;;;5004017;28;20030;-64
2022/01/09 02:14:35;;;;;;;35.45;4.30;;;;;;;;;;5004138;28;20039;-65
2022/01/09 02:17:01;;;;;;;22.58;4.20;;;;;;;;;;4996633;28;20391;-65
2022/01/09 02:19:27;;;;;;;13.38;2.40;;;;;;;;;;5008514;28;20067;-65
2022/01/09 02:21:55;;;;;;;24.05;4.30;;;;;;;;;;4998873;28;20116;-65
2022/01/09 02:24:23;;;;;;;12.18;1.95;;;;;;;;;;5002550;28;20053;-65
2022/01/09 02:26:50;;;;;;;19.48;2.60;;;;;;;;;;4999186;28;20052;-65
2022/01/09 02:29:16;;;;;;;20.23;2.78;;;;;;;;;;4993275;28;20027;-65
2022/01/09 02:31:43;;;;;;;16.02;2.75;;;;;;;;;;5007461;28;20487;-65
2022/01/09 02:34:09;;;;;;;21.30;2.88;;;;;;;;;;4999888;28;20463;-64
2022/01/09 02:36:35;;;;;;;23.25;3.47;;;;;;;;;;5000655;28;20109;-64
2022/01/09 02:39:01;;;;;;;20.40;3.65;;;;;;;;;;5008364;28;20509;-64
2022/01/09 02:41:28;;;;;;;23.42;3.33;;;;;;;;;;4999362;28;20581;-64
2022/01/09 02:43:54;;;;;;;19.92;3.03;;;;;;;;;;5010061;28;20014;-64
2022/01/09 02:46:43;;;;;;;29.67;4.70;;;;;;;;;;5000592;28;20027;-64
2022/01/09 02:49:09;;;;;;;17.70;4.22;;;;;;;;;;5012220;28;20037;-64
2022/01/09 02:51:36;;;;;;;44.20;5.28;;;;;;;;;;4999174;28;20026;-64
2022/01/09 02:55:05;;;;;;;23.83;4.15;;;;;;;;;;5009287;28;20031;-64
2022/01/09 02:56:48;;;;;;;23.92;4.25;;;;;;;;;;5000446;28;20394;-64
2022/01/09 02:59:14;;;;;;;32.30;4.00;;;;;;;;;;4995622;28;20033;-64
2022/01/09 03:01:40;;;;;;;35.45;4.45;;;;;;;;;;5012052;28;20033;-65
2022/01/09 03:04:06;;;;;;;31.85;4.82;;;;;;;;;;5003264;28;20100;-65
2022/01/09 03:06:33;;;;;;;33.95;5.25;;;;;;;;;;5004795;28;20027;-65
2022/01/09 03:09:01;;;;;;;27.88;4.70;;;;;;;;;;5010256;28;20030;-65
2022/01/09 03:11:28;;;;;;;43.30;5.05;;;;;;;;;;4998647;28;20038;-65
2022/01/09 03:13:54;;;;;;;33.53;4.15;;;;;;;;;;5000947;28;20062;-65
2022/01/09 03:16:20;;;;;;;23.60;3.95;;;;;;;;;;5004361;28;20025;-65
2022/01/09 03:18:46;;;;;;;33.85;5.88;;;;;;;;;;5002971;28;20030;-65
2022/01/09 03:21:12;;;;;;;40.40;5.25;;;;;;;;;;5011535;28;20036;-65
2022/01/09 03:23:38;;;;;;;36.92;4.60;;;;;;;;;;4998680;28;20056;-65
2022/01/09 03:26:07;;;;;;;30.30;4.25;;;;;;;;;;5008479;28;20089;-65
2022/01/09 03:28:33;;;;;;;35.58;5.40;;;;;;;;;;4995245;28;20087;-65
2022/01/09 03:30:59;;;;;;;40.72;6.68;;;;;;;;;;5009338;28;20038;-65
2022/01/09 03:33:25;;;;;;;33.47;4.78;;;;;;;;;;4998163;28;20026;-65
2022/01/09 03:35:51;;;;;;;39.50;6.30;;;;;;;;;;5010444;28;20073;-65
2022/01/09 03:38:17;;;;;;;37.67;5.70;;;;;;;;;;5003262;28;20414;-64
2022/01/09 03:40:44;;;;;;;45.35;5.93;;;;;;;;;;5003183;28;20084;-64
2022/01/09 03:43:10;;;;;;;40.20;6.85;;;;;;;;;;5010334;28;20433;-64
2022/01/09 03:45:36;;;;;;;32.55;5.95;;;;;;;;;;4980203;28;20241;-64
2022/01/09 03:48:02;;;;;;;37.50;5.93;;;;;;;;;;4995461;28;20030;-64
2022/01/09 03:50:28;;;;;;;27.50;3.85;;;;;;;;;;5004052;28;20018;-64
2022/01/09 03:52:54;;;;;;;19.02;3.55;;;;;;;;;;5001952;28;20026;-65
2022/01/09 03:55:21;;;;;;;25.13;5.90;;;;;;;;;;5009259;28;20026;-65
2022/01/09 03:57:48;;;;;;;26.90;4.72;;;;;;;;;;4995380;28;20040;-65
2022/01/09 04:00:16;;;;;;;29.67;3.95;;;;;;;;;;5007002;28;20036;-65
2022/01/09 04:02:45;;;;;;;38.95;5.00;;;;;;;;;;4992123;28;20101;-65
2022/01/09 04:05:11;;;;;;;28.63;4.43;;;;;;;;;;4993925;28;20030;-65
2022/01/09 04:07:38;;;;;;;33.58;6.78;;;;;;;;;;4995736;28;20047;-65
2022/01/09 04:10:04;;;;;;;23.70;4.15;;;;;;;;;;4993802;28;20189;-65
2022/01/09 04:12:35;;;;;;;26.95;5.05;;;;;;;;;;4993383;28;20058;-65
2022/01/09 04:15:03;;;;;;;25.75;4.18;;;;;;;;;;4994665;28;20054;-65
2022/01/09 04:17:49;;;;;;;24.13;4.22;;;;;;;;;;4985307;28;20459;-65
2022/01/09 04:20:16;;;;;;;26.33;4.20;;;;;;;;;;4997287;28;20483;-65
2022/01/09 04:22:42;;;;;;;22.95;3.60;;;;;;;;;;4993650;28;20034;-65
2022/01/09 04:25:08;;;;;;;28.42;5.25;;;;;;;;;;4994505;28;20062;-65
2022/01/09 04:27:35;;;;;;;25.95;4.85;;;;;;;;;;4997716;28;20034;-65
2022/01/09 04:30:01;;;;;;;22.83;3.92;;;;;;;;;;4994080;28;20497;-65
2022/01/09 04:32:27;;;;;;;19.38;4.00;;;;;;;;;;4993895;28;20026;-65
2022/01/09 04:34:53;;;;;;;27.60;3.92;;;;;;;;;;4993656;28;20018;-65
2022/01/09 04:37:19;;;;;;;20.17;3.72;;;;;;;;;;4993959;28;20042;-65
2022/01/09 04:39:48;;;;;;;32.55;6.05;;;;;;;;;;4997896;28;20089;-65
2022/01/09 04:42:14;;;;;;;26.77;3.70;;;;;;;;;;4994591;28;20034;-65
2022/01/09 04:44:40;;;;;;;32.10;4.38;;;;;;;;;;4994054;28;20031;-65
2022/01/09 04:47:12;;;;;;;34.80;4.53;;;;;;;;;;4993827;28;20022;-65
2022/01/09 04:49:40;;;;;;;27.65;5.30;;;;;;;;;;4991984;28;20100;-65
2022/01/09 04:52:10;;;;;;;14.95;2.53;;;;;;;;;;4989366;28;20065;-65
2022/01/09 04:54:36;;;;;;;13.20;2.30;;;;;;;;;;4994111;28;20026;-65
2022/01/09 04:57:02;;;;;;;17.48;2.20;;;;;;;;;;4993829;28;20237;-65
2022/01/09 04:59:29;;;;;;;27.98;3.03;;;;;;;;;;4993089;28;20026;-65
2022/01/09 05:01:55;;;;;;;24.77;3.33;;;;;;;;;;4994714;28;20089;-65
2022/01/09 05:04:21;;;;;;;18.17;2.72;;;;;;;;;;4996268;28;20034;-65
2022/01/09 05:06:47;;;;;;;23.90;3.80;;;;;;;;;;4992827;28;20018;-65
2022/01/09 05:09:13;;;;;;;13.32;2.55;;;;;;;;;;4996878;28;20042;-65
2022/01/09 05:11:39;;;;;;;14.82;2.63;;;;;;;;;;4995340;28;20034;-65
2022/01/09 05:14:05;;;;;;;14.70;2.60;;;;;;;;;;4996356;28;20033;-65
2022/01/09 05:16:32;;;;;;;24.45;3.58;;;;;;;;;;4992970;28;20545;-65
2022/01/09 05:19:03;;;;;;;20.23;4.05;;;;;;;;;;4992592;28;20150;-66
2022/01/09 05:21:30;;;;;;;34.03;4.20;;;;;;;;;;4994064;28;20034;-65
2022/01/09 05:23:56;;;;;;;27.50;4.68;;;;;;;;;;4994301;28;20061;-65
2022/01/09 05:26:22;;;;;;;24.92;4.75;;;;;;;;;;4992778;28;20042;-65
2022/01/09 05:28:48;;;;;;;20.25;3.38;;;;;;;;;;4995780;28;20080;-65
2022/01/09 05:31:14;;;;;;;27.02;3.97;;;;;;;;;;4992237;28;20058;-65
2022/01/09 05:33:40;;;;;;;24.33;4.22;;;;;;;;;;4992159;28;20506;-65
2022/01/09 05:36:06;;;;;;;18.45;2.92;;;;;;;;;;4992153;28;20023;-65
2022/01/09 05:38:33;;;;;;;23.40;3.40;;;;;;;;;;4991891;28;20041;-65
2022/01/09 05:40:59;;;;;;;19.38;3.35;;;;;;;;;;5002879;28;20061;-65
2022/01/09 05:43:25;;;;;;;29.98;3.60;;;;;;;;;;4998334;28;20030;-65
2022/01/09 05:45:51;;;;;;;28.63;3.55;;;;;;;;;;4994304;28;20030;-65
2022/01/09 05:48:18;;;;;;;21.23;3.90;;;;;;;;;;4997623;28;20021;-65
2022/01/09 05:50:44;;;;;;;21.70;4.20;;;;;;;;;;5004018;28;20033;-65
2022/01/09 05:53:10;;;;;;;26.50;4.85;;;;;;;;;;5004452;28;20025;-65
2022/01/09 05:55:37;;;;;;;37.55;4.95;;;;;;;;;;4995087;28;20066;-65
2022/01/09 05:58:03;;;;;;;27.85;3.90;;;;;;;;;;4995014;28;20044;-65
2022/01/09 06:00:29;;;;;;;35.10;6.60;;;;;;;;;;5006345;28;20027;-65
2022/01/09 06:02:55;;;;;;;35.92;4.32;;;;;;;;;;4992462;28;20049;-65
2022/01/09 06:05:23;;;;;;;21.13;3.67;;;;;;;;;;4995719;28;20049;-65
2022/01/09 06:07:49;;;;;;;20.05;3.67;;;;;;;;;;4995535;28;20034;-65
2022/01/09 06:10:15;;;;;;;24.65;4.32;;;;;;;;;;5002142;28;20030;-65
2022/01/09 06:12:41;;;;;;;24.13;3.65;;;;;;;;;;5005100;28;20034;-65
2022/01/09 06:15:08;;;;;;;21.63;3.97;;;;;;;;;;4996441;28;20026;-65
2022/01/09 06:17:41;;;;;;;17.23;3.88;;;;;;;;;;4991955;28;20025;-65
2022/01/09 06:20:08;;;;;;;20.50;3.58;;;;;;;;;;4994303;28;20734;-65
2022/01/09 06:22:34;;;;;;;21.20;3.30;;;;;;;;;;5000904;28;20379;-65
2022/01/09 06:25:00;;;;;;;32.35;3.85;;;;;;;;;;5002182;28;20442;-65
2022/01/09 06:27:27;;;;;;;31.85;5.18;;;;;;;;;;4994221;28;20026;-65
2022/01/09 06:29:53;;;;;;;32.17;4.50;;;;;;;;;;4991036;28;20053;-65
2022/01/09 06:32:19;;;;;;;28.98;5.43;;;;;;;;;;5001211;28;20030;-65
2022/01/09 06:34:45;;;;;;;21.75;3.45;;;;;;;;;;4998047;28;20025;-65
2022/01/09 06:37:12;;;;;;;18.95;2.83;;;;;;;;;;4997642;28;20026;-65
2022/01/09 06:39:39;;;;;;;18.60;3.05;;;;;;;;;;4987561;28;20037;-65
2022/01/09 06:42:05;;;;;;;21.23;3.45;;;;;;;;;;4993957;28;20602;-65
2022/01/09 06:44:31;;;;;;;21.02;3.58;;;;;;;;;;4997187;28;20389;-65
2022/01/09 06:46:57;;;;;;;18.73;3.05;;;;;;;;;;4993858;28;20031;-65
2022/01/09 06:49:23;;;;;;;27.52;4.65;;;;;;;;;;4996375;28;20026;-65
2022/01/09 06:51:49;;;;;;;28.58;4.35;;;;;;;;;;4992081;28;20038;-65
2022/01/09 06:54:15;;;;;;;20.88;4.07;;;;;;;;;;4992442;28;20120;-65
2022/01/09 06:56:42;;;;;;;31.23;5.70;;;;;;;;;;4992461;28;20542;-64
2022/01/09 06:59:08;;;;;;;30.42;4.78;;;;;;;;;;4996832;28;20072;-64
2022/01/09 07:01:35;;;;;;;26.67;4.28;;;;;;;;;;4986915;28;20379;-64
2022/01/09 07:04:01;;;;;;;39.25;6.00;;;;;;;;;;4992691;28;20036;-64
2022/01/09 07:06:27;;;;;;;28.83;4.78;;;;;;;;;;5006316;28;20109;-64
2022/01/09 07:08:53;;;;;;;26.55;3.92;;;;;;;;;;5002750;28;20021;-64
2022/01/09 07:11:19;;;;;;;22.83;4.63;;;;;;;;;;4993376;28;20041;-64
2022/01/09 07:13:46;;;;;;;30.42;4.40;;;;;;;;;;4995136;28;20019;-65
2022/01/09 07:16:12;;;;;;;28.88;3.42;;;;;;;;;;5004373;28;20033;-65
2022/01/09 07:18:38;;;;;;;26.52;4.18;;;;;;;;;;4991193;28;20399;-65
2022/01/09 07:21:04;;;;;;;29.50;4.88;;;;;;;;;;4977470;28;20065;-65
2022/01/09 07:23:30;;;;;;;28.55;4.65;;;;;;;;;;4993503;28;20517;-65
2022/01/09 07:25:56;;;;;;;23.00;3.80;;;;;;;;;;4998042;28;20057;-65
2022/01/09 07:28:23;;;;;;;32.50;4.78;;;;;;;;;;5008085;28;20033;-65
2022/01/09 07:30:49;;;;;;;31.38;4.22;;;;;;;;;;4998252;28;20029;-65
2022/01/09 07:33:15;;;;;;;33.90;5.15;;;;;;;;;;5000729;28;20487;-65
2022/01/09 07:35:41;;;;;;;61.75;6.53;;;;;;;;;;5001316;28;20029;-65
2022/01/09 07:38:08;;;;;;;46.40;6.13;;;;;;;;;;5004575;28;20088;-65
2022/01/09 07:40:34;;;;;;;27.00;6.22;;;;;;;;;;5004234;28;20029;-65
2022/01/09 07:43:00;;;;;;;39.22;5.53;;;;;;;;;;5003459;28;20104;-65
2022/01/09 07:45:29;;;;;;;36.78;5.55;;;;;;;;;;5000900;28;20137;-65
2022/01/09 07:47:56;;;;;;;32.15;5.10;;;;;;;;;;4996364;28;20495;-65
2022/01/09 07:50:23;;;;;;;38.45;5.95;;;;;;;;;;5001850;28;20025;-65
2022/01/09 07:52:49;;;;;;;35.30;5.63;;;;;;;;;;4994808;28;20034;-65
2022/01/09 07:55:18;;;;;;;36.63;5.05;;;;;;;;;;4996099;28;20037;-66
2022/01/09 07:57:45;;;;;;;34.88;6.60;;;;;;;;;;5001645;28;20088;-65
2022/01/09 08:00:11;;;;;;;30.73;5.28;;;;;;;;;;4996939;28;20027;-65
2022/01/09 08:02:41;;;;;;;21.00;4.13;;;;;;;;;;4993568;28;20105;-67
2022/01/09 08:05:07;;;;;;;12.43;2.33;;;;;;;;;;4999393;28;20501;-67
2022/01/09 08:07:33;;;;;;;21.60;4.45;;;;;;;;;;4998642;28;20034;-67
2022/01/09 08:09:59;;;;;;;20.90;5.55;;;;;;;;;;4994357;28;20070;-66
2022/01/09 08:12:25;;;;;;;20.52;3.22;;;;;;;;;;4991132;28;20549;-66
2022/01/09 08:14:52;;;;;;;21.70;3.40;;;;;;;;;;4988622;28;21429;-66
2022/01/09 08:17:18;;;;;;;31.10;5.22;;;;;;;;;;4995764;28;20064;-66
2022/01/09 08:19:44;;;;;;;29.55;7.28;;;;;;;;;;4996166;28;20034;-66
2022/01/09 08:22:10;;;;;;;22.73;4.40;;;;;;;;;;4996725;28;20062;-66
2022/01/09 08:24:37;;;;;;;88.28;26.85;;;;;;;;;;4984870;28;20384;-65
2022/01/09 08:27:03;;;;;;;67.10;17.45;;;;;;;;;;4989801;28;20038;-65
2022/01/09 08:29:30;;;;;;;48.78;13.18;;;;;;;;;;5001281;28;20117;-65
2022/01/09 08:31:56;;;;;;;37.83;6.75;;;;;;;;;;4997597;28;20042;-65
2022/01/09 08:34:22;;;;;;;31.55;5.78;;;;;;;;;;5002785;28;20033;-65
2022/01/09 08:36:48;;;;;;;35.17;4.97;;;;;;;;;;4994725;28;20498;-65
2022/01/09 08:39:14;;;;;;;33.47;6.35;;;;;;;;;;5005957;28;20046;-65
2022/01/09 08:41:41;;;;;;;68.70;21.48;;;;;;;;;;4996220;28;20032;-65
2022/01/09 08:44:07;;;;;;;51.28;8.90;;;;;;;;;;4991875;28;20049;-65
2022/01/09 08:46:34;;;;;;;75.05;18.52;;;;;;;;;;4991455;28;20033;-65
2022/01/09 08:49:01;;;;;;;47.90;8.57;;;;;;;;;;4996269;28;20033;-65
2022/01/09 08:51:28;;;;;;;38.03;8.43;;;;;;;;;;4991922;28;20033;-65
2022/01/09 08:53:54;;;;;;;127.97;33.97;;;;;;;;;;4995357;28;20394;-65
2022/01/09 08:56:21;;;;;;;36.80;10.57;;;;;;;;;;4994859;28;20030;-65
2022/01/09 08:58:47;;;;;;;31.42;8.48;;;;;;;;;;4994175;28;20022;-65
2022/01/09 09:01:13;;;;;;;95.20;33.03;;;;;;;;;;5000370;28;20040;-65
2022/01/09 09:03:41;;;;;;;31.50;6.00;;;;;;;;;;5000826;28;20030;-65
2022/01/09 09:06:16;;;;;;;40.42;5.28;;;;;;;;;;4999456;28;20077;-65
2022/01/09 09:08:44;;;;;;;27.77;6.03;;;;;;;;;;5000914;28;20494;-65
2022/01/09 09:11:10;;;;;;;76.68;22.98;;;;;;;;;;4994857;28;20098;-65
2022/01/09 09:13:37;;;;;;;31.05;6.53;;;;;;;;;;5000489;28;20075;-65
2022/01/09 09:16:03;;;;;;;36.13;5.00;;;;;;;;;;4991045;28;20054;-65
2022/01/09 09:18:30;;;;;;;37.22;7.22;;;;;;;;;;4998041;28;20025;-65
2022/01/09 09:20:56;;;;;;;30.67;5.38;;;;;;;;;;4994730;28;20026;-65
2022/01/09 09:23:22;;;;;;;26.42;6.75;;;;;;;;;;5000826;28;20027;-65
2022/01/09 09:25:48;;;;;;;19.77;4.60;;;;;;;;;;4995777;28;20567;-64
2022/01/09 09:28:15;;;;;;;28.40;6.70;;;;;;;;;;4994809;28;20045;-64
2022/01/09 09:30:41;;;;;;;21.85;4.40;;;;;;;;;;4992632;28;20113;-64
2022/01/09 09:33:07;;;;;;;30.00;8.20;;;;;;;;;;4993193;28;20039;-64
2022/01/09 09:35:34;;;;;;;20.17;4.00;;;;;;;;;;4992502;28;20026;-64
2022/01/09 09:38:00;;;;;;;36.60;5.32;;;;;;;;;;4992048;28;20054;-64
2022/01/09 09:40:27;;;;;;;32.85;5.28;;;;;;;;;;4999796;28;20018;-64
2022/01/09 09:42:53;;;;;;;39.85;6.07;;;;;;;;;;4996320;28;20045;-65
2022/01/09 09:45:20;;;;;;;34.33;4.72;;;;;;;;;;4986931;28;20037;-64
2022/01/09 09:47:46;;;;;;;27.35;5.45;;;;;;;;;;4989309;28;20392;-65
2022/01/09 09:50:14;;;;;;;35.45;6.75;;;;;;;;;;4991664;28;20030;-65
2022/01/09 09:52:43;;;;;;;28.15;7.22;;;;;;;;;;4989710;28;20049;-64
2022/01/09 09:55:10;;;;;;;32.75;6.38;;;;;;;;;;4992101;28;20054;-64
2022/01/09 09:57:36;;;;;;;41.67;6.45;;;;;;;;;;4997088;28;20041;-64
2022/01/09 10:00:05;;;;;;;39.08;7.07;;;;;;;;;;4994213;28;20018;-64
2022/01/09 10:02:49;;;;;;;41.15;8.82;;;;;;;;;;4991562;28;20367;-64
2022/01/09 10:05:19;;;;;;;45.30;6.28;;;;;;;;;;4991364;28;20169;-65
2022/01/09 10:07:46;;;;;;;36.83;6.30;;;;;;;;;;5000512;28;20097;-64
2022/01/09 10:10:22;;;;;;;38.05;6.57;;;;;;;;;;4994505;28;20076;-64
2022/01/09 10:12:48;;;;;;;45.38;7.47;;;;;;;;;;4995125;28;20022;-64
2022/01/09 10:15:19;;;;;;;26.15;5.15;;;;;;;;;;4996754;28;20479;-65
2022/01/09 10:17:46;;;;;;;16.08;2.72;;;;;;;;;;5001292;28;20513;-65
2022/01/09 10:20:14;;;;;;;19.40;4.97;;;;;;;;;;4993625;28;20038;-65
2022/01/09 10:22:43;;;;;;;24.58;4.20;;;;;;;;;;4996914;28;20037;-65
2022/01/09 10:25:20;;;;;;;30.35;5.22;;;;;;;;;;4975428;28;20042;-65
2022/01/09 10:27:47;;;;;;;25.60;6.07;;;;;;;;;;4990346;28;20066;-65
2022/01/09 10:30:13;;;;;;;21.83;5.30;;;;;;;;;;4991433;28;20037;-65
2022/01/09 10:32:40;;;;;;;22.15;4.32;;;;;;;;;;4975254;28;20109;-65
2022/01/09 10:35:17;;;;;;;35.50;8.57;;;;;;;;;;4996635;28;20031;-65
2022/01/09 10:37:45;;;;;;;31.48;8.88;;;;;;;;;;4996750;28;20060;-65
2022/01/09 10:40:17;;;;;;;24.83;4.97;;;;;;;;;;5001030;28;20037;-65
2022/01/09 10:42:43;;;;;;;17.55;3.33;;;;;;;;;;4993286;28;20027;-64
2022/01/09 10:45:17;;;;;;;32.55;4.28;;;;;;;;;;4993898;28;20494;-64
2022/01/09 10:47:43;;;;;;;25.95;4.18;;;;;;;;;;4996073;28;20502;-64
2022/01/09 10:50:10;;;;;;;31.77;4.10;;;;;;;;;;4990356;28;20034;-65
2022/01/09 10:52:41;;;;;;;24.13;4.30;;;;;;;;;;4990252;28;20053;-64
2022/01/09 10:55:08;;;;;;;33.60;5.13;;;;;;;;;;4993539;28;20062;-65
2022/01/09 10:57:37;;;;;;;26.50;4.82;;;;;;;;;;4991234;28;20031;-65
2022/01/09 11:00:06;;;;;;;26.20;5.00;;;;;;;;;;4995377;28;20046;-65
2022/01/09 11:02:33;;;;;;;31.35;4.82;;;;;;;;;;4998767;28;20034;-64
2022/01/09 11:04:59;;;;;;;25.05;4.47;;;;;;;;;;4993718;28;20026;-65
2022/01/09 11:07:25;;;;;;;24.13;5.47;;;;;;;;;;4994442;28;20411;-65
2022/01/09 11:09:52;;;;;;;35.88;5.00;;;;;;;;;;5003054;28;20065;-65
2022/01/09 11:12:20;;;;;;;22.00;5.38;;;;;;;;;;5002094;28;20046;-65
2022/01/09 11:14:49;;;;;;;35.42;5.28;;;;;;;;;;4995796;28;20026;-65
2022/01/09 11:17:16;;;;;;;45.47;12.70;;;;;;;;;;4994701;28;20459;-65
2022/01/09 11:19:42;;;;;;;27.92;5.57;;;;;;;;;;4991865;28;20030;-65
2022/01/09 11:22:10;;;;;;;37.97;6.65;;;;;;;;;;4988959;28;20026;-65
2022/01/09 11:24:39;;;;;;;29.48;5.20;;;;;;;;;;4994963;28;20034;-65
2022/01/09 11:27:15;;;;;;;34.63;6.57;;;;;;;;;;4991386;28;20038;-65
2022/01/09 11:29:41;;;;;;;32.08;5.03;;;;;;;;;;4996069;28;20585;-65
2022/01/09 11:32:22;;;;;;;37.10;6.88;;;;;;;;;;4997134;28;20491;-65
2022/01/09 11:34:53;;;;;;;22.98;6.70;;;;;;;;;;4991557;28;20037;-66
2022/01/09 11:37:26;;;;;;;29.45;5.72;;;;;;;;;;4991576;28;20085;-61
2022/01/09 11:39:52;;;;;;;27.42;5.25;;;;;;;;;;4987955;28;20443;-62
2022/01/09 11:42:18;;;;;;;28.48;5.07;;;;;;;;;;4979910;28;20034;-61
2022/01/09 11:44:46;;;;;;;22.98;3.75;;;;;;;;;;4982600;28;20037;-61
2022/01/09 11:47:12;;;;;;;23.77;4.53;;;;;;;;;;4973013;28;20407;-62
2022/01/09 11:49:54;;;;;;;28.50;5.38;;;;;;;;;;4994462;28;20041;-62
2022/01/09 11:52:20;;;;;;;21.55;3.63;;;;;;;;;;4986665;28;20091;-69
2022/01/09 11:54:51;;;;;;;23.85;4.07;;;;;;;;;;4996886;28;20434;-61
2022/01/09 11:57:34;;;;;;;37.47;4.25;;;;;;;;;;4993789;28;20045;-61
2022/01/09 12:00:00;;;;;;;25.48;4.07;;;;;;;;;;4994035;28;20038;-61
2022/01/09 12:02:30;;;;;;;28.58;5.55;;;;;;;;;;5001732;28;20035;-61
2022/01/09 12:05:03;;;;;;;27.73;7.68;;;;;;;;;;5006317;28;20113;-61
2022/01/09 12:07:35;;;;;;;38.25;7.75;;;;;;;;;;4994402;28;20574;-61
2022/01/09 12:10:02;;;;;;;31.95;8.40;;;;;;;;;;4998218;28;20069;-61
2022/01/09 12:12:36;;;;;;;27.27;6.90;;;;;;;;;;4997424;28;20355;-61
2022/01/09 12:15:04;;;;;;;38.72;6.78;;;;;;;;;;4991172;28;20036;-62
2022/01/09 12:17:44;;;;;;;31.00;10.82;;;;;;;;;;4996680;28;20554;-62
2022/01/09 12:20:10;;;;;;;41.08;7.68;;;;;;;;;;5001882;28;20034;-63
2022/01/09 12:22:49;;;;;;;29.83;6.43;;;;;;;;;;4996920;28;20029;-61
2022/01/09 12:25:24;;;;;;;33.85;5.38;;;;;;;;;;4991963;28;20018;-62
2022/01/09 12:27:54;;;;;;;29.52;5.18;;;;;;;;;;4992090;28;20049;-63
2022/01/09 12:30:33;;;;;;;29.45;4.97;;;;;;;;;;4991287;28;20031;-63
2022/01/09 12:33:05;;;;;;;24.90;5.15;;;;;;;;;;4989956;28;20280;-63
2022/01/09 12:35:32;;;;;;;23.73;4.32;;;;;;;;;;4999741;28;20382;-63
2022/01/09 12:38:01;;;;;;;33.53;6.45;;;;;;;;;;4994287;28;20057;-63
2022/01/09 12:40:31;;;;;;;26.10;5.13;;;;;;;;;;4995863;28;20035;-62
2022/01/09 12:42:59;;;;;;;18.90;3.80;;;;;;;;;;4993567;28;20767;-62
2022/01/09 12:45:26;;;;;;;13.65;2.70;;;;;;;;;;4976865;28;20395;-62
2022/01/09 12:47:54;;;;;;;10.27;2.38;;;;;;;;;;4996735;28;20034;-62
2022/01/09 12:50:27;;;;;;;14.52;2.28;;;;;;;;;;4996226;28;20502;-63
2022/01/09 12:53:14;;;;;;;20.85;3.85;;;;;;;;;;4991318;28;20117;-62
2022/01/09 12:55:59;;;;;;;12.75;3.35;;;;;;;;;;4988106;28;20449;-62
2022/01/09 12:58:32;;;;;;;14.98;2.65;;;;;;;;;;4991820;28;20029;-62
2022/01/09 13:00:59;;;;;;;13.35;3.25;;;;;;;;;;4989047;28;20502;-62
2022/01/09 13:03:30;;;;;;;10.30;3.22;;;;;;;;;;4995184;28;20023;-62
2022/01/09 13:05:58;;;;;;;9.70;2.33;;;;;;;;;;4989612;28;20651;-63
2022/01/09 13:08:24;;;;;;;10.07;1.88;;;;;;;;;;4988651;28;20457;-62
2022/01/09 13:11:00;;;;;;;10.38;2.00;;;;;;;;;;4991180;28;20578;-62
2022/01/09 13:13:27;;;;;;;20.77;3.05;;;;;;;;;;4992454;28;20026;-63
2022/01/09 13:15:54;;;;;;;14.73;3.50;;;;;;;;;;4974123;28;20022;-62
2022/01/09 13:18:42;;;;;;;18.02;4.32;;;;;;;;;;4992509;28;20054;-63
2022/01/09 13:21:18;;;;;;;12.18;4.13;;;;;;;;;;4992262;28;21213;-62
2022/01/09 13:23:51;;;;;;;24.73;6.90;;;;;;;;;;4998477;28;20028;-62
2022/01/09 13:26:18;;;;;;;18.80;4.78;;;;;;;;;;4997541;28;20462;-62
2022/01/09 13:28:48;;;;;;;27.75;6.45;;;;;;;;;;4996255;28;20022;-62
2022/01/09 13:31:16;;;;;;;23.00;9.13;;;;;;;;;;5000462;28;20109;-63
2022/01/09 13:34:01;;;;;;;31.38;8.50;;;;;;;;;;5004454;28;20068;-63
2022/01/09 13:36:46;;;;;;;26.42;7.03;;;;;;;;;;4999258;28;20421;-62
2022/01/09 13:39:21;;;;;;;32.22;7.95;;;;;;;;;;4993502;28;20046;-62
2022/01/09 13:41:49;;;;;;;29.50;7.50;;;;;;;;;;5000233;28;20069;-62
2022/01/09 13:44:16;;;;;;;21.92;6.30;;;;;;;;;;5003013;28;20022;-62
2022/01/09 13:46:43;;;;;;;24.90;5.22;;;;;;;;;;4996841;28;20034;-62
2022/01/09 13:49:16;;;;;;;22.20;5.38;;;;;;;;;;5003358;28;20410;-63
2022/01/09 13:51:42;;;;;;;29.20;5.38;;;;;;;;;;4997767;28;20056;-63
2022/01/09 13:54:09;;;;;;;30.38;5.63;;;;;;;;;;4997796;28;20060;-63
2022/01/09 13:56:35;;;;;;;41.72;8.50;;;;;;;;;;4995593;28;20029;-62
2022/01/09 13:59:01;;;;;;;31.42;8.30;;;;;;;;;;5001776;28;20380;-62
2022/01/09 14:01:37;;;;;;;30.80;7.80;;;;;;;;;;5006380;28;20033;-62
2022/01/09 14:04:17;;;;;;;60.00;21.42;;;;;;;;;;5001749;28;20076;-63
2022/01/09 14:06:44;;;;;;;27.58;6.97;;;;;;;;;;4991254;28;20440;-62
2022/01/09 14:09:10;;;;;;;108.50;30.95;;;;;;;;;;5001334;28;20076;-62
2022/01/09 14:11:36;;;;;;;43.08;12.70;;;;;;;;;;4991797;28;20402;-62
2022/01/09 14:14:02;;;;;;;44.38;8.93;;;;;;;;;;5009017;28;20022;-62
2022/01/09 14:16:38;;;;;;;116.78;36.15;;;;;;;;;;4996572;28;20105;-62
2022/01/09 14:19:06;;;;;;;34.78;9.45;;;;;;;;;;5004018;28;20386;-63
2022/01/09 14:21:33;;;;;;;55.00;14.30;;;;;;;;;;4998315;28;20482;-62
2022/01/09 14:24:07;;;;;;;68.90;20.13;;;;;;;;;;5002267;28;20034;-62
2022/01/09 14:26:33;;;;;;;37.30;7.28;;;;;;;;;;5000275;28;20026;-62
2022/01/09 14:28:59;;;;;;;64.15;20.00;;;;;;;;;;4998298;28;20030;-62
2022/01/09 14:31:26;;;;;;;29.98;6.43;;;;;;;;;;5001095;28;20026;-62